sensor_id;sensor_type;location;lat;lon;timestamp;pressure;altitude;pressure_sealevel;temperature;humidity
13050;BME280;6591;51.446;5.404;2023-02-18T00:01:32;101951.16;;;18.65;51.05
13050;BME280;6591;51.446;5.404;2023-02-18T00:03:59;101946.66;;;18.66;51.44
13050;BME280;6591;51.446;5.404;2023-02-18T00:06:35;101947.81;;;18.61;51.30
13050;BME280;6591;51.446;5.404;2023-02-18T00:09:04;101939.66;;;18.63;51.07
13050;BME280;6591;51.446;5.404;2023-02-18T00:11:35;101948.56;;;18.63;51.25
13050;BME280;6591;51.446;5.404;2023-02-18T00:14:07;101945.88;;;18.63;51.29
13050;BME280;6591;51.446;5.404;2023-02-18T00:16:34;101948.56;;;18.63;51.17
13050;BME280;6591;51.446;5.404;2023-02-18T00:19:05;101945.88;;;18.63;51.11
13050;BME280;6591;51.446;5.404;2023-02-18T00:21:34;101944.16;;;18.63;51.46
13050;BME280;6591;51.446;5.404;2023-02-18T00:24:04;101927.03;;;18.63;51.32
13050;BME280;6591;51.446;5.404;2023-02-18T00:26:35;101935.09;;;18.63;51.33
13050;BME280;6591;51.446;5.404;2023-02-18T00:29:03;101938.66;;;18.64;51.39
13050;BME280;6591;51.446;5.404;2023-02-18T00:31:35;101917.13;;;18.64;51.24
13050;BME280;6591;51.446;5.404;2023-02-18T00:34:04;101932.41;;;18.63;51.69
13050;BME280;6591;51.446;5.404;2023-02-18T00:36:34;101935.09;;;18.63;51.14
13050;BME280;6591;51.446;5.404;2023-02-18T00:39:06;101929.91;;;18.60;51.67
13050;BME280;6591;51.446;5.404;2023-02-18T00:41:35;101926.44;;;18.58;51.59
13050;BME280;6591;51.446;5.404;2023-02-18T00:44:03;101913.97;;;18.57;51.60
13050;BME280;6591;51.446;5.404;2023-02-18T00:46:30;101907.81;;;18.55;51.55
13050;BME280;6591;51.446;5.404;2023-02-18T00:49:00;101915.06;;;18.53;51.76
13050;BME280;6591;51.446;5.404;2023-02-18T00:51:27;101902.59;;;18.52;51.68
13050;BME280;6591;51.446;5.404;2023-02-18T00:53:54;101890.09;;;18.51;51.65
13050;BME280;6591;51.446;5.404;2023-02-18T00:56:22;101881.25;;;18.49;51.53
13050;BME280;6591;51.446;5.404;2023-02-18T00:58:49;101897.59;;;18.46;51.58
13050;BME280;6591;51.446;5.404;2023-02-18T01:01:17;101893.16;;;18.45;51.64
13050;BME280;6591;51.446;5.404;2023-02-18T01:03:44;101877.97;;;18.44;51.75
13050;BME280;6591;51.446;5.404;2023-02-18T01:06:13;101885.28;;;18.42;51.77
13050;BME280;6591;51.446;5.404;2023-02-18T01:08:41;101884.53;;;18.40;51.91
13050;BME280;6591;51.446;5.404;2023-02-18T01:11:10;101883.72;;;18.38;52.03
13050;BME280;6591;51.446;5.404;2023-02-18T01:13:40;101891.06;;;18.36;52.00
13050;BME280;6591;51.446;5.404;2023-02-18T01:16:08;101883.16;;;18.33;51.86
13050;BME280;6591;51.446;5.404;2023-02-18T01:18:38;101881.63;;;18.29;51.78
13050;BME280;6591;51.446;5.404;2023-02-18T01:21:07;101890.72;;;18.27;52.08
13050;BME280;6591;51.446;5.404;2023-02-18T01:23:40;101889.28;;;18.21;52.03
13050;BME280;6591;51.446;5.404;2023-02-18T01:26:10;101885.91;;;18.17;52.10
13050;BME280;6591;51.446;5.404;2023-02-18T01:28:39;101886.09;;;18.14;52.15
13050;BME280;6591;51.446;5.404;2023-02-18T01:31:11;101881.88;;;18.10;52.27
13050;BME280;6591;51.446;5.404;2023-02-18T01:33:38;101883.84;;;18.07;52.19
13050;BME280;6591;51.446;5.404;2023-02-18T01:36:07;101879.53;;;18.04;52.34
13050;BME280;6591;51.446;5.404;2023-02-18T01:38:35;101878.75;;;18.02;52.47
13050;BME280;6591;51.446;5.404;2023-02-18T01:41:03;101874.44;;;18.00;52.38
13050;BME280;6591;51.446;5.404;2023-02-18T01:43:31;101870.09;;;17.97;52.53
13050;BME280;6591;51.446;5.404;2023-02-18T01:46:19;101864.22;;;17.91;52.85
13050;BME280;6591;51.446;5.404;2023-02-18T01:48:58;101850.13;;;17.87;52.73
13050;BME280;6591;51.446;5.404;2023-02-18T01:51:35;101851.19;;;17.85;52.63
13050;BME280;6591;51.446;5.404;2023-02-18T01:54:13;101859.41;;;17.82;52.96
13050;BME280;6591;51.446;5.404;2023-02-18T01:59:36;101854.38;;;17.75;53.22
13050;BME280;6591;51.446;5.404;2023-02-18T02:02:10;101844.59;;;17.74;53.08
13050;BME280;6591;51.446;5.404;2023-02-18T02:04:38;101845.47;;;17.75;53.19
13050;BME280;6591;51.446;5.404;2023-02-18T02:07:06;101849.97;;;17.74;53.14
13050;BME280;6591;51.446;5.404;2023-02-18T02:09:35;101849.97;;;17.74;53.33
13050;BME280;6591;51.446;5.404;2023-02-18T02:17:41;101847.75;;;17.67;53.48
13050;BME280;6591;51.446;5.404;2023-02-18T02:32:28;101832.22;;;17.56;53.94
13050;BME280;6591;51.446;5.404;2023-02-18T02:35:12;101819.66;;;17.57;53.75
13050;BME280;6591;51.446;5.404;2023-02-18T02:38:08;101817.06;;;17.55;53.95
13050;BME280;6591;51.446;5.404;2023-02-18T02:41:29;101802.69;;;17.56;53.77
13050;BME280;6591;51.446;5.404;2023-02-18T02:44:18;101791.94;;;17.56;53.66
13050;BME280;6591;51.446;5.404;2023-02-18T02:46:51;101794.53;;;17.58;53.96
13050;BME280;6591;51.446;5.404;2023-02-18T02:49:42;101782.94;;;17.57;53.91
13050;BME280;6591;51.446;5.404;2023-02-18T02:54:45;101777.41;;;17.60;53.80
13050;BME280;6591;51.446;5.404;2023-02-18T03:00:04;101773.06;;;17.58;53.90
13050;BME280;6591;51.446;5.404;2023-02-18T03:12:35;101760.34;;;17.46;54.06
13050;BME280;6591;51.446;5.404;2023-02-18T03:15:42;101757.00;;;17.42;54.42
13050;BME280;6591;51.446;5.404;2023-02-18T03:18:25;101749.69;;;17.44;54.10
13050;BME280;6591;51.446;5.404;2023-02-18T03:21:23;101748.06;;;17.42;54.58
13050;BME280;6591;51.446;5.404;2023-02-18T03:24:28;101734.72;;;17.40;54.21
13050;BME280;6591;51.446;5.404;2023-02-18T03:27:13;101733.09;;;17.38;54.20
13050;BME280;6591;51.446;5.404;2023-02-18T03:29:46;101720.44;;;17.40;54.20
13050;BME280;6591;51.446;5.404;2023-02-18T03:32:18;101706.06;;;17.41;54.09
13050;BME280;6591;51.446;5.404;2023-02-18T03:34:56;101714.09;;;17.41;54.16
13050;BME280;6591;51.446;5.404;2023-02-18T03:37:26;101711.22;;;17.44;54.07
13050;BME280;6591;51.446;5.404;2023-02-18T03:39:58;101703.16;;;17.44;54.17
13050;BME280;6591;51.446;5.404;2023-02-18T03:42:28;101694.25;;;17.43;54.43
13050;BME280;6591;51.446;5.404;2023-02-18T03:44:55;101698.78;;;17.43;54.34
13050;BME280;6591;51.446;5.404;2023-02-18T03:47:23;101685.34;;;17.43;54.15
13050;BME280;6591;51.446;5.404;2023-02-18T03:49:50;101685.44;;;17.41;54.68
13050;BME280;6591;51.446;5.404;2023-02-18T03:52:18;101689.88;;;17.42;53.99
13050;BME280;6591;51.446;5.404;2023-02-18T03:54:45;101684.50;;;17.42;54.47
13050;BME280;6591;51.446;5.404;2023-02-18T03:57:12;101688.13;;;17.41;54.21
13050;BME280;6591;51.446;5.404;2023-02-18T03:59:39;101679.19;;;17.41;54.62
13050;BME280;6591;51.446;5.404;2023-02-18T04:02:06;101675.66;;;17.40;54.58
13050;BME280;6591;51.446;5.404;2023-02-18T04:04:33;101675.66;;;17.40;54.70
13050;BME280;6591;51.446;5.404;2023-02-18T04:07:00;101674.69;;;17.41;54.36
13050;BME280;6591;51.446;5.404;2023-02-18T04:09:27;101665.97;;;17.38;54.69
13050;BME280;6591;51.446;5.404;2023-02-18T04:11:54;101657.94;;;17.38;54.60
13050;BME280;6591;51.446;5.404;2023-02-18T04:14:21;101659.75;;;17.37;54.59
13050;BME280;6591;51.446;5.404;2023-02-18T04:16:48;101657.13;;;17.35;54.61
13050;BME280;6591;51.446;5.404;2023-02-18T04:19:15;101659.91;;;17.34;54.68
13050;BME280;6591;51.446;5.404;2023-02-18T04:21:42;101652.81;;;17.33;54.93
13050;BME280;6591;51.446;5.404;2023-02-18T04:24:09;101650.31;;;17.30;55.02
13050;BME280;6591;51.446;5.404;2023-02-18T04:26:36;101653.88;;;17.30;54.92
13050;BME280;6591;51.446;5.404;2023-02-18T04:29:03;101647.72;;;17.28;54.70
13050;BME280;6591;51.446;5.404;2023-02-18T04:31:30;101653.00;;;17.30;54.82
13050;BME280;6591;51.446;5.404;2023-02-18T04:33:58;101647.56;;;17.31;54.76
13050;BME280;6591;51.446;5.404;2023-02-18T04:36:25;101653.78;;;17.32;54.93
13050;BME280;6591;51.446;5.404;2023-02-18T04:38:52;101646.69;;;17.31;55.00
13050;BME280;6591;51.446;5.404;2023-02-18T04:41:19;101657.50;;;17.29;55.09
13050;BME280;6591;51.446;5.404;2023-02-18T04:43:46;101659.31;;;17.29;55.08
13050;BME280;6591;51.446;5.404;2023-02-18T04:46:13;101666.63;;;17.27;54.82
13050;BME280;6591;51.446;5.404;2023-02-18T04:48:40;101657.78;;;17.25;55.16
13050;BME280;6591;51.446;5.404;2023-02-18T04:51:07;101648.06;;;17.22;55.35
13050;BME280;6591;51.446;5.404;2023-02-18T04:53:34;101649.91;;;17.22;55.69
13050;BME280;6591;51.446;5.404;2023-02-18T04:56:01;101642.81;;;17.21;55.56
13050;BME280;6591;51.446;5.404;2023-02-18T04:58:28;101641.84;;;17.22;55.83
13050;BME280;6591;51.446;5.404;2023-02-18T05:01:03;101639.44;;;17.17;55.89
13050;BME280;6591;51.446;5.404;2023-02-18T05:03:31;101641.09;;;17.20;56.03
13050;BME280;6591;51.446;5.404;2023-02-18T05:05:58;101642.03;;;17.19;56.47
13050;BME280;6591;51.446;5.404;2023-02-18T05:08:25;101634.94;;;17.18;56.01
13050;BME280;6591;51.446;5.404;2023-02-18T05:10:52;101626.88;;;17.18;56.24
13050;BME280;6591;51.446;5.404;2023-02-18T05:13:19;101634.94;;;17.18;56.45
13050;BME280;6591;51.446;5.404;2023-02-18T05:15:46;101624.19;;;17.18;56.48
13050;BME280;6591;51.446;5.404;2023-02-18T05:18:13;101626.88;;;17.18;56.33
13050;BME280;6591;51.446;5.404;2023-02-18T05:20:42;101610.78;;;17.18;56.29
13050;BME280;6591;51.446;5.404;2023-02-18T05:23:09;101616.06;;;17.19;56.33
13050;BME280;6591;51.446;5.404;2023-02-18T05:25:36;101613.31;;;17.21;56.44
13050;BME280;6591;51.446;5.404;2023-02-18T05:28:03;101609.91;;;17.17;56.60
13050;BME280;6591;51.446;5.404;2023-02-18T05:30:30;101605.34;;;17.19;56.58
13050;BME280;6591;51.446;5.404;2023-02-18T05:32:57;101600.84;;;17.20;56.76
13050;BME280;6591;51.446;5.404;2023-02-18T05:35:24;101592.78;;;17.20;56.19
13050;BME280;6591;51.446;5.404;2023-02-18T05:37:51;101595.47;;;17.20;56.75
13050;BME280;6591;51.446;5.404;2023-02-18T05:40:18;101601.69;;;17.20;56.88
13050;BME280;6591;51.446;5.404;2023-02-18T05:42:45;101590.09;;;17.20;56.75
13050;BME280;6591;51.446;5.404;2023-02-18T05:45:12;101606.19;;;17.20;56.74
13050;BME280;6591;51.446;5.404;2023-02-18T05:47:39;101603.50;;;17.20;56.88
13050;BME280;6591;51.446;5.404;2023-02-18T05:50:07;101604.47;;;17.19;57.09
13050;BME280;6591;51.446;5.404;2023-02-18T05:52:34;101608.09;;;17.18;57.09
13050;BME280;6591;51.446;5.404;2023-02-18T05:55:02;101615.28;;;17.17;57.19
13050;BME280;6591;51.446;5.404;2023-02-18T05:57:29;101614.41;;;17.17;57.17
13050;BME280;6591;51.446;5.404;2023-02-18T05:59:56;101614.41;;;17.17;57.05
13050;BME280;6591;51.446;5.404;2023-02-18T06:02:26;101593.06;;;17.15;56.96
13050;BME280;6591;51.446;5.404;2023-02-18T06:04:53;101595.63;;;17.17;56.84
13050;BME280;6591;51.446;5.404;2023-02-18T06:07:20;101585.00;;;17.15;57.14
13050;BME280;6591;51.446;5.404;2023-02-18T06:09:47;101588.66;;;17.14;56.93
13050;BME280;6591;51.446;5.404;2023-02-18T06:12:14;101593.06;;;17.15;57.16
13050;BME280;6591;51.446;5.404;2023-02-18T06:14:41;101574.34;;;17.14;57.05
13050;BME280;6591;51.446;5.404;2023-02-18T06:17:11;101576.25;;;17.12;57.05
13050;BME280;6591;51.446;5.404;2023-02-18T06:19:38;101581.63;;;17.12;57.40
13050;BME280;6591;51.446;5.404;2023-02-18T06:22:07;101578.94;;;17.12;57.28
13050;BME280;6591;51.446;5.404;2023-02-18T06:24:34;101582.59;;;17.11;57.10
13050;BME280;6591;51.446;5.404;2023-02-18T06:27:02;101565.53;;;17.12;57.18
13050;BME280;6591;51.446;5.404;2023-02-18T06:29:30;101567.47;;;17.10;57.47
13050;BME280;6591;51.446;5.404;2023-02-18T06:31:58;101570.22;;;17.08;57.45
13050;BME280;6591;51.446;5.404;2023-02-18T06:34:26;101580.97;;;17.08;57.31
13050;BME280;6591;51.446;5.404;2023-02-18T06:36:53;101574.72;;;17.08;57.56
13050;BME280;6591;51.446;5.404;2023-02-18T06:39:20;101572.13;;;17.06;57.59
13050;BME280;6591;51.446;5.404;2023-02-18T06:41:47;101579.22;;;17.07;57.60
13050;BME280;6591;51.446;5.404;2023-02-18T06:44:14;101565.72;;;17.09;57.26
13050;BME280;6591;51.446;5.404;2023-02-18T06:46:43;101585.38;;;17.09;57.48
13050;BME280;6591;51.446;5.404;2023-02-18T06:49:11;101581.81;;;17.09;57.38
13050;BME280;6591;51.446;5.404;2023-02-18T06:51:38;101579.22;;;17.07;57.37
13050;BME280;6591;51.446;5.404;2023-02-18T06:54:05;101576.53;;;17.07;57.35
13050;BME280;6591;51.446;5.404;2023-02-18T06:56:32;101585.66;;;17.05;57.42
13050;BME280;6591;51.446;5.404;2023-02-18T06:59:00;101587.41;;;17.06;57.56
13050;BME280;6591;51.446;5.404;2023-02-18T07:01:27;101591.03;;;17.05;57.11
13050;BME280;6591;51.446;5.404;2023-02-18T07:03:54;101571.47;;;17.03;57.78
13050;BME280;6591;51.446;5.404;2023-02-18T07:06:21;101597.63;;;16.99;57.36
13050;BME280;6591;51.446;5.404;2023-02-18T07:08:48;101591.47;;;16.97;57.35
13050;BME280;6591;51.446;5.404;2023-02-18T07:11:15;101603.34;;;16.93;57.36
13050;BME280;6591;51.446;5.404;2023-02-18T07:13:42;101595.56;;;16.88;57.05
13050;BME280;6591;51.446;5.404;2023-02-18T07:16:10;101600.28;;;16.85;57.36
13050;BME280;6591;51.446;5.404;2023-02-18T07:18:37;101597.84;;;16.80;57.50
13050;BME280;6591;51.446;5.404;2023-02-18T07:21:04;101598.09;;;16.76;57.30
13050;BME280;6591;51.446;5.404;2023-02-18T07:23:31;101598.31;;;16.73;57.22
13050;BME280;6591;51.446;5.404;2023-02-18T07:26:11;101598.56;;;16.68;57.01
13050;BME280;6591;51.446;5.404;2023-02-18T07:28:40;101595.91;;;16.68;57.21
13050;BME280;6591;51.446;5.404;2023-02-18T07:31:07;101595.97;;;16.67;57.14
13050;BME280;6591;51.446;5.404;2023-02-18T07:33:35;101585.44;;;16.64;57.13
13050;BME280;6591;51.446;5.404;2023-02-18T07:36:03;101581.97;;;16.62;56.96
13050;BME280;6591;51.446;5.404;2023-02-18T07:38:30;101587.34;;;16.62;56.76
13050;BME280;6591;51.446;5.404;2023-02-18T07:40:58;101591.91;;;16.60;56.87
13050;BME280;6591;51.446;5.404;2023-02-18T07:43:25;101609.97;;;16.56;56.92
13050;BME280;6591;51.446;5.404;2023-02-18T07:45:53;101607.22;;;16.58;56.72
13050;BME280;6591;51.446;5.404;2023-02-18T07:48:20;101601.06;;;16.56;56.67
13050;BME280;6591;51.446;5.404;2023-02-18T07:50:47;101621.56;;;16.57;56.63
13050;BME280;6591;51.446;5.404;2023-02-18T07:53:15;101616.19;;;16.57;56.79
13050;BME280;6591;51.446;5.404;2023-02-18T07:55:42;101627.63;;;16.60;56.76
13050;BME280;6591;51.446;5.404;2023-02-18T07:58:25;101633.88;;;16.61;56.77
13050;BME280;6591;51.446;5.404;2023-02-18T08:00:54;101636.28;;;16.65;56.83
13050;BME280;6591;51.446;5.404;2023-02-18T08:03:26;101630.84;;;16.67;56.74
13050;BME280;6591;51.446;5.404;2023-02-18T08:05:54;101623.47;;;16.70;56.70
13050;BME280;6591;51.446;5.404;2023-02-18T08:08:25;101621.56;;;16.72;56.68
13050;BME280;6591;51.446;5.404;2023-02-18T08:10:56;101616.13;;;16.74;56.41
13050;BME280;6591;51.446;5.404;2023-02-18T08:13:28;101632.91;;;16.77;56.81
13050;BME280;6591;51.446;5.404;2023-02-18T08:15:56;101631.94;;;16.78;56.40
13050;BME280;6591;51.446;5.404;2023-02-18T08:18:25;101624.66;;;16.80;56.42
13050;BME280;6591;51.446;5.404;2023-02-18T08:20:52;101618.06;;;16.86;56.56
13050;BME280;6591;51.446;5.404;2023-02-18T08:23:21;101622.41;;;16.88;56.72
13050;BME280;6591;51.446;5.404;2023-02-18T08:25:50;101614.16;;;16.91;56.29
13050;BME280;6591;51.446;5.404;2023-02-18T08:28:21;101615.81;;;16.94;56.31
13050;BME280;6591;51.446;5.404;2023-02-18T08:30:51;101621.84;;;16.98;56.41
13050;BME280;6591;51.446;5.404;2023-02-18T08:33:20;101622.53;;;17.01;56.12
13050;BME280;6591;51.446;5.404;2023-02-18T08:35:50;101620.44;;;17.06;56.11
13050;BME280;6591;51.446;5.404;2023-02-18T08:38:18;101614.69;;;17.12;55.97
13050;BME280;6591;51.446;5.404;2023-02-18T08:40:45;101612.59;;;17.17;56.30
13050;BME280;6591;51.446;5.404;2023-02-18T08:43:15;101607.72;;;17.24;55.89
13050;BME280;6591;51.446;5.404;2023-02-18T08:45:43;101612.81;;;17.28;55.37
13050;BME280;6591;51.446;5.404;2023-02-18T08:48:13;101604.59;;;17.31;55.15
13050;BME280;6591;51.446;5.404;2023-02-18T08:50:47;101612.16;;;17.39;55.86
13050;BME280;6591;51.446;5.404;2023-02-18T08:53:15;101618.13;;;17.44;55.50
13050;BME280;6591;51.446;5.404;2023-02-18T08:55:43;101622.16;;;17.51;55.61
13050;BME280;6591;51.446;5.404;2023-02-18T08:58:11;101616.41;;;17.57;55.36
13050;BME280;6591;51.446;5.404;2023-02-18T09:00:40;101615.22;;;17.63;55.33
13050;BME280;6591;51.446;5.404;2023-02-18T09:03:12;101616.72;;;17.67;54.70
13050;BME280;6591;51.446;5.404;2023-02-18T09:05:40;101619.13;;;17.71;54.79
13050;BME280;6591;51.446;5.404;2023-02-18T09:08:07;101610.97;;;17.73;54.72
13050;BME280;6591;51.446;5.404;2023-02-18T09:10:34;101626.97;;;17.74;54.75
13050;BME280;6591;51.446;5.404;2023-02-18T09:13:02;101617.88;;;17.77;54.44
13050;BME280;6591;51.446;5.404;2023-02-18T09:15:30;101606.19;;;17.78;54.18
13050;BME280;6591;51.446;5.404;2023-02-18T09:17:58;101612.41;;;17.78;54.15
13050;BME280;6591;51.446;5.404;2023-02-18T09:20:26;101621.22;;;17.81;54.22
13050;BME280;6591;51.446;5.404;2023-02-18T09:22:54;101624.69;;;17.83;53.74
13050;BME280;6591;51.446;5.404;2023-02-18T09:25:21;101620.28;;;17.82;53.83
13050;BME280;6591;51.446;5.404;2023-02-18T09:27:48;101620.28;;;17.82;53.89
13050;BME280;6591;51.446;5.404;2023-02-18T09:30:15;101607.03;;;17.78;53.62
13050;BME280;6591;51.446;5.404;2023-02-18T09:32:42;101626.97;;;17.74;53.46
13050;BME280;6591;51.446;5.404;2023-02-18T09:35:09;101624.50;;;17.71;53.46
13050;BME280;6591;51.446;5.404;2023-02-18T09:37:36;101631.78;;;17.69;53.58
13050;BME280;6591;51.446;5.404;2023-02-18T09:40:06;101616.81;;;17.65;53.40
13050;BME280;6591;51.446;5.404;2023-02-18T09:42:34;101629.50;;;17.63;53.38
13050;BME280;6591;51.446;5.404;2023-02-18T09:45:05;101636.16;;;17.56;53.16
13050;BME280;6591;51.446;5.404;2023-02-18T09:47:41;101625.78;;;17.50;52.89
13050;BME280;6591;51.446;5.404;2023-02-18T09:50:18;101633.28;;;17.45;53.15
13050;BME280;6591;51.446;5.404;2023-02-18T09:52:47;101628.09;;;17.42;53.00
13050;BME280;6591;51.446;5.404;2023-02-18T09:58:13;101633.16;;;17.32;52.98
13050;BME280;6591;51.446;5.404;2023-02-18T10:01:35;101632.56;;;17.27;53.29
13050;BME280;6591;51.446;5.404;2023-02-18T10:04:16;101631.53;;;17.30;53.13
13050;BME280;6591;51.446;5.404;2023-02-18T10:06:47;101628.56;;;17.34;53.20
13050;BME280;6591;51.446;5.404;2023-02-18T10:09:28;101639.97;;;17.38;53.31
13050;BME280;6591;51.446;5.404;2023-02-18T10:12:10;101639.78;;;17.41;53.09
13050;BME280;6591;51.446;5.404;2023-02-18T10:14:50;101643.16;;;17.45;53.20
13050;BME280;6591;51.446;5.404;2023-02-18T10:17:20;101641.91;;;17.50;52.88
13050;BME280;6591;51.446;5.404;2023-02-18T10:19:51;101650.53;;;17.55;52.98
13050;BME280;6591;51.446;5.404;2023-02-18T10:22:21;101651.22;;;17.59;53.01
13050;BME280;6591;51.446;5.404;2023-02-18T10:24:54;101651.81;;;17.64;52.66
13050;BME280;6591;51.446;5.404;2023-02-18T10:27:37;101660.75;;;17.64;52.81
13050;BME280;6591;51.446;5.404;2023-02-18T10:32:45;101659.44;;;17.71;52.69
13050;BME280;6591;51.446;5.404;2023-02-18T10:35:23;101658.38;;;17.74;52.76
13050;BME280;6591;51.446;5.404;2023-02-18T10:41:17;101664.59;;;17.74;52.41
13050;BME280;6591;51.446;5.404;2023-02-18T10:44:12;101676.13;;;17.76;52.71
13050;BME280;6591;51.446;5.404;2023-02-18T10:47:24;101665.16;;;17.79;52.56
13050;BME280;6591;51.446;5.404;2023-02-18T10:50:37;101660.66;;;17.80;52.07
13050;BME280;6591;51.446;5.404;2023-02-18T10:53:24;101664.13;;;17.82;52.15
13050;BME280;6591;51.446;5.404;2023-02-18T10:55:57;101671.72;;;17.90;52.16
13050;BME280;6591;51.446;5.404;2023-02-18T10:58:41;101677.09;;;17.90;51.86
13050;BME280;6591;51.446;5.404;2023-02-18T11:01:19;101677.84;;;17.92;51.76
13050;BME280;6591;51.446;5.404;2023-02-18T11:04:04;101682.47;;;17.90;51.85
13050;BME280;6591;51.446;5.404;2023-02-18T11:06:46;101670.88;;;17.89;51.75
13050;BME280;6591;51.446;5.404;2023-02-18T11:09:41;101674.59;;;17.87;51.85
13050;BME280;6591;51.446;5.404;2023-02-18T11:12:44;101679.00;;;17.88;52.32
13050;BME280;6591;51.446;5.404;2023-02-18T11:15:23;101676.13;;;17.91;52.25
13050;BME280;6591;51.446;5.404;2023-02-18T11:17:55;101682.06;;;17.96;52.05
13050;BME280;6591;51.446;5.404;2023-02-18T11:20:32;101690.13;;;17.96;52.02
13050;BME280;6591;51.446;5.404;2023-02-18T11:23:17;101682.84;;;17.98;51.75
13050;BME280;6591;51.446;5.404;2023-02-18T11:26:04;101696.94;;;18.01;52.04
13050;BME280;6591;51.446;5.404;2023-02-18T11:28:41;101679.56;;;18.07;52.12
13050;BME280;6591;51.446;5.404;2023-02-18T11:31:16;101682.09;;;18.10;51.63
13050;BME280;6591;51.446;5.404;2023-02-18T11:33:54;101683.69;;;18.12;51.79
13050;BME280;6591;51.446;5.404;2023-02-18T11:36:34;101687.25;;;18.13;51.72
13050;BME280;6591;51.446;5.404;2023-02-18T11:42:14;101662.88;;;18.16;51.68
13050;BME280;6591;51.446;5.404;2023-02-18T11:44:58;101666.88;;;18.23;51.88
13050;BME280;6591;51.446;5.404;2023-02-18T11:47:35;101684.44;;;18.29;51.88
13050;BME280;6591;51.446;5.404;2023-02-18T11:50:24;101678.03;;;18.31;51.57
13050;BME280;6591;51.446;5.404;2023-02-18T11:52:50;101676.78;;;18.37;51.54
13050;BME280;6591;51.446;5.404;2023-02-18T11:55:23;101675.78;;;18.38;51.28
13050;BME280;6591;51.446;5.404;2023-02-18T11:58:03;101666.47;;;18.43;51.45
13050;BME280;6591;51.446;5.404;2023-02-18T12:00:47;101676.91;;;18.48;51.43
13050;BME280;6591;51.446;5.404;2023-02-18T12:03:38;101677.69;;;18.50;51.04
13050;BME280;6591;51.446;5.404;2023-02-18T12:06:25;101676.66;;;18.52;51.47
13050;BME280;6591;51.446;5.404;2023-02-18T12:09:00;101672.81;;;18.56;51.03
13050;BME280;6591;51.446;5.404;2023-02-18T12:11:39;101661.84;;;18.59;51.28
13050;BME280;6591;51.446;5.404;2023-02-18T12:14:16;101665.31;;;18.61;51.18
13050;BME280;6591;51.446;5.404;2023-02-18T12:26:25;101650.75;;;18.78;51.61
13050;BME280;6591;51.446;5.404;2023-02-18T12:29:21;101643.66;;;18.90;51.91
13050;BME280;6591;51.446;5.404;2023-02-18T12:41:07;101637.72;;;19.37;51.09
13050;BME280;6591;51.446;5.404;2023-02-18T12:44:03;101640.00;;;19.43;50.67
13050;BME280;6591;51.446;5.404;2023-02-18T12:49:51;101649.16;;;19.40;50.26
13050;BME280;6591;51.446;5.404;2023-02-18T12:52:44;101644.66;;;19.41;50.11
13050;BME280;6591;51.446;5.404;2023-02-18T13:13:27;101643.44;;;19.32;50.07
13050;BME280;6591;51.446;5.404;2023-02-18T13:16:19;101643.44;;;19.32;50.28
13050;BME280;6591;51.446;5.404;2023-02-18T13:19:16;101655.16;;;19.31;50.22
13050;BME280;6591;51.446;5.404;2023-02-18T13:21:48;101653.06;;;19.36;50.11
13050;BME280;6591;51.446;5.404;2023-02-18T13:24:37;101656.56;;;19.37;50.08
13050;BME280;6591;51.446;5.404;2023-02-18T13:27:25;101657.34;;;19.39;50.00
13050;BME280;6591;51.446;5.404;2023-02-18T13:39:11;101661.41;;;19.32;49.95
13050;BME280;6591;51.446;5.404;2023-02-18T13:41:48;101645.06;;;19.35;50.27
13050;BME280;6591;51.446;5.404;2023-02-18T13:46:54;101644.84;;;19.38;50.49
13050;BME280;6591;51.446;5.404;2023-02-18T13:49:32;101648.19;;;19.41;50.42
13050;BME280;6591;51.446;5.404;2023-02-18T13:52:02;101632.47;;;19.48;50.66
13050;BME280;6591;51.446;5.404;2023-02-18T13:54:45;101623.97;;;19.54;50.74
13050;BME280;6591;51.446;5.404;2023-02-18T13:57:30;101623.22;;;19.65;50.42
13050;BME280;6591;51.446;5.404;2023-02-18T14:00:16;101634.75;;;19.79;50.94
13050;BME280;6591;51.446;5.404;2023-02-18T14:02:59;101641.88;;;19.93;51.20
13050;BME280;6591;51.446;5.404;2023-02-18T14:05:39;101645.50;;;20.05;50.49
13050;BME280;6591;51.446;5.404;2023-02-18T14:08:29;101644.19;;;20.10;49.86
13050;BME280;6591;51.446;5.404;2023-02-18T14:13:54;101662.53;;;20.18;49.35
13050;BME280;6591;51.446;5.404;2023-02-18T14:16:21;101647.22;;;20.18;49.47
13050;BME280;6591;51.446;5.404;2023-02-18T14:18:58;101650.88;;;20.17;49.24
13050;BME280;6591;51.446;5.404;2023-02-18T14:21:41;101645.47;;;20.17;49.46
13050;BME280;6591;51.446;5.404;2023-02-18T14:24:11;101651.63;;;20.19;49.02
13050;BME280;6591;51.446;5.404;2023-02-18T14:26:46;101640.94;;;20.18;49.35
13050;BME280;6591;51.446;5.404;2023-02-18T14:29:29;101641.81;;;20.18;49.02
13050;BME280;6591;51.446;5.404;2023-02-18T14:32:02;101645.25;;;20.20;49.29
13050;BME280;6591;51.446;5.404;2023-02-18T14:35:12;101641.06;;;20.16;49.05
13050;BME280;6591;51.446;5.404;2023-02-18T14:37:48;101639.13;;;20.18;48.96
13050;BME280;6591;51.446;5.404;2023-02-18T14:40:51;101640.75;;;20.08;48.92
13050;BME280;6591;51.446;5.404;2023-02-18T14:49:34;101639.03;;;19.95;48.72
13050;BME280;6591;51.446;5.404;2023-02-18T14:52:05;101639.28;;;19.92;48.42
13050;BME280;6591;51.446;5.404;2023-02-18T14:54:39;101642.19;;;19.88;48.83
13050;BME280;6591;51.446;5.404;2023-02-18T14:57:17;101640.81;;;19.83;48.78
13050;BME280;6591;51.446;5.404;2023-02-18T14:59:47;101640.91;;;19.81;48.84
13050;BME280;6591;51.446;5.404;2023-02-18T15:02:24;101648.34;;;19.78;48.62
13050;BME280;6591;51.446;5.404;2023-02-18T15:04:53;101642.09;;;19.77;48.58
13050;BME280;6591;51.446;5.404;2023-02-18T15:07:21;101637.78;;;19.75;48.92
13050;BME280;6591;51.446;5.404;2023-02-18T15:09:53;101644.25;;;19.72;48.85
13050;BME280;6591;51.446;5.404;2023-02-18T15:12:23;101639.94;;;19.70;48.96
13050;BME280;6591;51.446;5.404;2023-02-18T15:14:53;101636.38;;;19.69;49.06
13050;BME280;6591;51.446;5.404;2023-02-18T15:17:25;101637.34;;;19.68;48.84
13050;BME280;6591;51.446;5.404;2023-02-18T15:20:05;101636.50;;;19.68;48.79